sensor_id;sensor_type;location;lat;lon;timestamp;pressure;altitude;pressure_sealevel;temperature;humidity
55994;BME280;67425;52.126;20.638;2023-09-30T00:02:04;57528.81;;;-144.78;46.04
55994;BME280;67425;52.126;20.638;2023-09-30T00:04:30;57528.81;;;-144.78;46.10
55994;BME280;67425;52.126;20.638;2023-09-30T00:06:55;57532.97;;;-144.78;46.17
55994;BME280;67425;52.126;20.638;2023-09-30T00:09:20;57510.13;;;-144.78;46.10
55994;BME280;67425;52.126;20.638;2023-09-30T00:11:47;57539.19;;;-144.78;46.04
55994;BME280;67425;52.126;20.638;2023-09-30T00:14:12;57501.81;;;-144.78;46.80
55994;BME280;67425;52.126;20.638;2023-09-30T00:16:37;57537.09;;;-144.78;46.28
55994;BME280;67425;52.126;20.638;2023-09-30T00:19:03;57528.81;;;-144.78;45.92
55994;BME280;67425;52.126;20.638;2023-09-30T00:21:29;57524.66;;;-144.78;46.75
55994;BME280;67425;52.126;20.638;2023-09-30T00:23:54;57524.66;;;-144.78;46.41
55994;BME280;67425;52.126;20.638;2023-09-30T00:26:19;57514.25;;;-144.78;46.82
55994;BME280;67425;52.126;20.638;2023-09-30T00:28:46;57539.19;;;-144.78;46.54
55994;BME280;67425;52.126;20.638;2023-09-30T00:31:11;57549.56;;;-144.78;46.25
55994;BME280;67425;52.126;20.638;2023-09-30T00:33:37;57499.72;;;-144.78;46.08
55994;BME280;67425;52.126;20.638;2023-09-30T00:36:09;57512.19;;;-144.78;46.19
55994;BME280;67425;52.126;20.638;2023-09-30T00:38:39;57520.50;;;-144.78;45.78
55994;BME280;67425;52.126;20.638;2023-09-30T00:41:05;57522.56;;;-144.78;46.43
55994;BME280;67425;52.126;20.638;2023-09-30T00:43:32;57501.81;;;-144.78;46.28
55994;BME280;67425;52.126;20.638;2023-09-30T00:48:42;57497.66;;;-144.78;49.46
55994;BME280;67425;52.126;20.638;2023-09-30T00:51:08;57514.25;;;-144.78;49.28
55994;BME280;67425;52.126;20.638;2023-09-30T00:53:33;57528.81;;;-144.78;49.39
55994;BME280;67425;52.126;20.638;2023-09-30T00:55:59;57537.09;;;-144.78;49.73
55994;BME280;67425;52.126;20.638;2023-09-30T00:58:26;57472.72;;;-144.78;49.72
55994;BME280;67425;52.126;20.638;2023-09-30T01:00:56;57539.19;;;-144.78;49.97
55994;BME280;67425;52.126;20.638;2023-09-30T01:03:22;57497.66;;;-144.78;50.63
55994;BME280;67425;52.126;20.638;2023-09-30T01:05:48;57522.56;;;-144.78;50.89
55994;BME280;67425;52.126;20.638;2023-09-30T01:08:15;57541.25;;;-144.78;51.18
55994;BME280;67425;52.126;20.638;2023-09-30T01:10:41;57532.97;;;-144.78;50.13
55994;BME280;67425;52.126;20.638;2023-09-30T01:13:07;57524.66;;;-144.78;52.10
55994;BME280;67425;52.126;20.638;2023-09-30T01:15:32;57541.25;;;-144.78;52.38
55994;BME280;67425;52.126;20.638;2023-09-30T01:17:58;57541.25;;;-144.78;51.14
55994;BME280;67425;52.126;20.638;2023-09-30T01:20:24;57514.25;;;-144.78;52.56
55994;BME280;67425;52.126;20.638;2023-09-30T01:22:49;57557.88;;;-144.78;53.30
55994;BME280;67425;52.126;20.638;2023-09-30T01:25:14;57541.25;;;-144.78;52.13
55994;BME280;67425;52.126;20.638;2023-09-30T01:27:40;57547.50;;;-144.78;53.47
55994;BME280;67425;52.126;20.638;2023-09-30T01:30:06;57539.19;;;-144.78;52.98
55994;BME280;67425;52.126;20.638;2023-09-30T01:32:31;57566.19;;;-144.78;55.19
55994;BME280;67425;52.126;20.638;2023-09-30T01:34:57;57535.03;;;-144.78;53.63
55994;BME280;67425;52.126;20.638;2023-09-30T01:37:22;57576.56;;;-144.78;53.47
55994;BME280;67425;52.126;20.638;2023-09-30T01:39:47;57528.81;;;-144.78;54.25
55994;BME280;67425;52.126;20.638;2023-09-30T01:42:15;57535.03;;;-144.78;53.62
55994;BME280;67425;52.126;20.638;2023-09-30T01:44:41;57535.03;;;-144.78;54.31
55994;BME280;67425;52.126;20.638;2023-09-30T01:47:06;57551.66;;;-144.78;54.91
55994;BME280;67425;52.126;20.638;2023-09-30T01:49:31;57535.03;;;-144.78;52.66
55994;BME280;67425;52.126;20.638;2023-09-30T01:51:57;57522.56;;;-144.78;52.75
55994;BME280;67425;52.126;20.638;2023-09-30T01:54:22;57568.25;;;-144.78;52.70
55994;BME280;67425;52.126;20.638;2023-09-30T01:56:47;57551.66;;;-144.78;52.31
55994;BME280;67425;52.126;20.638;2023-09-30T01:59:13;57535.03;;;-144.78;51.18
55994;BME280;67425;52.126;20.638;2023-09-30T02:01:38;57518.41;;;-144.78;50.83
55994;BME280;67425;52.126;20.638;2023-09-30T02:04:03;57522.56;;;-144.78;50.24
55994;BME280;67425;52.126;20.638;2023-09-30T02:06:31;57524.66;;;-144.78;50.36
55994;BME280;67425;52.126;20.638;2023-09-30T02:08:57;57535.03;;;-144.78;50.03
55994;BME280;67425;52.126;20.638;2023-09-30T02:11:22;57528.81;;;-144.78;49.89
55994;BME280;67425;52.126;20.638;2023-09-30T02:13:47;57532.97;;;-144.78;49.94
55994;BME280;67425;52.126;20.638;2023-09-30T02:16:13;57541.25;;;-144.78;49.18
55994;BME280;67425;52.126;20.638;2023-09-30T02:18:40;57553.72;;;-144.78;48.81
55994;BME280;67425;52.126;20.638;2023-09-30T02:21:09;57539.19;;;-144.78;48.39
55994;BME280;67425;52.126;20.638;2023-09-30T02:23:35;57520.50;;;-144.78;47.55
55994;BME280;67425;52.126;20.638;2023-09-30T02:26:01;57505.97;;;-144.78;47.61
55994;BME280;67425;52.126;20.638;2023-09-30T02:28:26;57518.41;;;-144.78;48.15
55994;BME280;67425;52.126;20.638;2023-09-30T02:30:51;57526.72;;;-144.78;47.21
55994;BME280;67425;52.126;20.638;2023-09-30T02:33:18;57510.13;;;-144.78;47.15
55994;BME280;67425;52.126;20.638;2023-09-30T02:35:44;57501.81;;;-144.78;47.14
55994;BME280;67425;52.126;20.638;2023-09-30T02:38:11;57514.25;;;-144.78;47.06
55994;BME280;67425;52.126;20.638;2023-09-30T02:40:36;57483.13;;;-144.78;47.54
55994;BME280;67425;52.126;20.638;2023-09-30T02:43:02;57530.88;;;-144.78;47.83
55994;BME280;67425;52.126;20.638;2023-09-30T02:45:27;57530.88;;;-144.78;47.64
55994;BME280;67425;52.126;20.638;2023-09-30T02:47:53;57520.50;;;-144.78;47.81
55994;BME280;67425;52.126;20.638;2023-09-30T02:50:18;57516.34;;;-144.78;47.69
55994;BME280;67425;52.126;20.638;2023-09-30T02:52:44;57520.50;;;-144.78;47.85
55994;BME280;67425;52.126;20.638;2023-09-30T02:55:10;57520.50;;;-144.78;48.06
55994;BME280;67425;52.126;20.638;2023-09-30T02:57:36;57526.72;;;-144.78;48.64
55994;BME280;67425;52.126;20.638;2023-09-30T03:00:05;57499.72;;;-144.78;48.59
55994;BME280;67425;52.126;20.638;2023-09-30T03:02:40;57532.97;;;-144.78;49.28
55994;BME280;67425;52.126;20.638;2023-09-30T03:05:06;57547.50;;;-144.78;49.74
55994;BME280;67425;52.126;20.638;2023-09-30T03:07:32;57522.56;;;-144.78;48.87
55994;BME280;67425;52.126;20.638;2023-09-30T03:09:58;57543.34;;;-144.78;48.36
55994;BME280;67425;52.126;20.638;2023-09-30T03:12:25;57510.13;;;-144.78;48.96
55994;BME280;67425;52.126;20.638;2023-09-30T03:14:50;57520.50;;;-144.78;49.06
55994;BME280;67425;52.126;20.638;2023-09-30T03:17:16;57501.81;;;-144.78;49.23
55994;BME280;67425;52.126;20.638;2023-09-30T03:19:42;57518.41;;;-144.78;48.84
55994;BME280;67425;52.126;20.638;2023-09-30T03:22:08;57487.28;;;-144.78;48.90
55994;BME280;67425;52.126;20.638;2023-09-30T03:24:37;57530.88;;;-144.78;48.85
55994;BME280;67425;52.126;20.638;2023-09-30T03:27:02;57518.41;;;-144.78;48.49
55994;BME280;67425;52.126;20.638;2023-09-30T03:29:28;57518.41;;;-144.78;48.73
55994;BME280;67425;52.126;20.638;2023-09-30T03:31:53;57501.81;;;-144.78;48.77
55994;BME280;67425;52.126;20.638;2023-09-30T03:34:19;57528.81;;;-144.78;48.49
55994;BME280;67425;52.126;20.638;2023-09-30T03:36:45;57522.56;;;-144.78;48.79
55994;BME280;67425;52.126;20.638;2023-09-30T03:39:10;57520.50;;;-144.78;48.81
55994;BME280;67425;52.126;20.638;2023-09-30T03:41:40;57532.97;;;-144.78;48.34
55994;BME280;67425;52.126;20.638;2023-09-30T03:44:05;57541.25;;;-144.78;47.73
55994;BME280;67425;52.126;20.638;2023-09-30T03:46:31;57547.50;;;-144.78;47.83
55994;BME280;67425;52.126;20.638;2023-09-30T03:48:56;57520.50;;;-144.78;48.32
55994;BME280;67425;52.126;20.638;2023-09-30T03:51:22;57522.56;;;-144.78;48.18
55994;BME280;67425;52.126;20.638;2023-09-30T03:53:50;57543.34;;;-144.78;48.01
55994;BME280;67425;52.126;20.638;2023-09-30T03:56:16;57528.81;;;-144.78;48.24
55994;BME280;67425;52.126;20.638;2023-09-30T03:58:43;57526.72;;;-144.78;47.44
55994;BME280;67425;52.126;20.638;2023-09-30T04:01:10;57508.03;;;-144.78;47.49
55994;BME280;67425;52.126;20.638;2023-09-30T04:03:39;57530.88;;;-144.78;48.21
55994;BME280;67425;52.126;20.638;2023-09-30T04:06:05;57501.81;;;-144.78;47.69
55994;BME280;67425;52.126;20.638;2023-09-30T04:08:32;57518.41;;;-144.78;48.21
55994;BME280;67425;52.126;20.638;2023-09-30T04:10:59;57516.34;;;-144.78;49.07
55994;BME280;67425;52.126;20.638;2023-09-30T04:13:24;57541.25;;;-144.78;48.73
55994;BME280;67425;52.126;20.638;2023-09-30T04:15:50;57518.41;;;-144.78;48.87
55994;BME280;67425;52.126;20.638;2023-09-30T04:18:16;57541.25;;;-144.78;48.50
55994;BME280;67425;52.126;20.638;2023-09-30T04:20:41;57526.72;;;-144.78;48.83
55994;BME280;67425;52.126;20.638;2023-09-30T04:23:07;57530.88;;;-144.78;48.50
55994;BME280;67425;52.126;20.638;2023-09-30T04:25:35;57543.34;;;-144.78;48.43
55994;BME280;67425;52.126;20.638;2023-09-30T04:28:00;57530.88;;;-144.78;48.55
55994;BME280;67425;52.126;20.638;2023-09-30T04:30:25;57541.25;;;-144.78;48.70
55994;BME280;67425;52.126;20.638;2023-09-30T04:32:52;57518.41;;;-144.78;49.49
55994;BME280;67425;52.126;20.638;2023-09-30T04:35:18;57541.25;;;-144.78;49.70
55994;BME280;67425;52.126;20.638;2023-09-30T04:37:43;57522.56;;;-144.78;49.16
55994;BME280;67425;52.126;20.638;2023-09-30T04:40:09;57508.03;;;-144.78;48.78
55994;BME280;67425;52.126;20.638;2023-09-30T04:42:41;57514.25;;;-144.78;48.50
55994;BME280;67425;52.126;20.638;2023-09-30T04:45:08;57520.50;;;-144.78;48.94
55994;BME280;67425;52.126;20.638;2023-09-30T04:47:35;57497.66;;;-144.78;49.03
55994;BME280;67425;52.126;20.638;2023-09-30T04:50:00;57520.50;;;-144.78;48.61
55994;BME280;67425;52.126;20.638;2023-09-30T04:52:30;57547.50;;;-144.78;48.56
55994;BME280;67425;52.126;20.638;2023-09-30T04:54:56;57518.41;;;-144.78;48.54
55994;BME280;67425;52.126;20.638;2023-09-30T04:57:21;57520.50;;;-144.78;48.53
55994;BME280;67425;52.126;20.638;2023-09-30T04:59:47;57547.50;;;-144.78;48.66
55994;BME280;67425;52.126;20.638;2023-09-30T05:02:12;57510.13;;;-144.78;48.67
55994;BME280;67425;52.126;20.638;2023-09-30T05:04:40;57535.03;;;-144.78;48.81
55994;BME280;67425;52.126;20.638;2023-09-30T05:07:06;57514.25;;;-144.78;48.86
55994;BME280;67425;52.126;20.638;2023-09-30T05:09:31;57555.81;;;-144.78;49.47
55994;BME280;67425;52.126;20.638;2023-09-30T05:11:56;57499.72;;;-144.78;49.04
55994;BME280;67425;52.126;20.638;2023-09-30T05:14:22;57530.88;;;-144.78;50.00
55994;BME280;67425;52.126;20.638;2023-09-30T05:16:47;57512.19;;;-144.78;50.00
55994;BME280;67425;52.126;20.638;2023-09-30T05:19:12;57545.41;;;-144.78;50.31
55994;BME280;67425;52.126;20.638;2023-09-30T05:21:38;57518.41;;;-144.78;50.43
55994;BME280;67425;52.126;20.638;2023-09-30T05:24:04;57526.72;;;-144.78;50.94
55994;BME280;67425;52.126;20.638;2023-09-30T05:26:30;57522.56;;;-144.78;51.23
55994;BME280;67425;52.126;20.638;2023-09-30T05:28:56;57501.81;;;-144.78;51.75
55994;BME280;67425;52.126;20.638;2023-09-30T05:31:21;57518.41;;;-144.78;51.79
55994;BME280;67425;52.126;20.638;2023-09-30T05:33:46;57541.25;;;-144.78;51.82
55994;BME280;67425;52.126;20.638;2023-09-30T05:36:12;57535.03;;;-144.78;52.90
55994;BME280;67425;52.126;20.638;2023-09-30T05:38:39;57516.34;;;-144.78;52.57
55994;BME280;67425;52.126;20.638;2023-09-30T05:41:04;57522.56;;;-144.78;52.81
55994;BME280;67425;52.126;20.638;2023-09-30T05:43:31;57514.25;;;-144.78;54.31
55994;BME280;67425;52.126;20.638;2023-09-30T05:45:57;57541.25;;;-144.78;54.23
55994;BME280;67425;52.126;20.638;2023-09-30T05:48:23;57508.03;;;-144.78;54.55
55994;BME280;67425;52.126;20.638;2023-09-30T05:50:48;57522.56;;;-144.78;54.62
55994;BME280;67425;52.126;20.638;2023-09-30T05:53:14;57530.88;;;-144.78;54.91
55994;BME280;67425;52.126;20.638;2023-09-30T05:55:40;57535.03;;;-144.78;55.76
55994;BME280;67425;52.126;20.638;2023-09-30T05:58:13;57541.25;;;-144.78;57.25
55994;BME280;67425;52.126;20.638;2023-09-30T06:00:42;57541.25;;;-144.78;57.02
55994;BME280;67425;52.126;20.638;2023-09-30T06:03:08;57549.56;;;-144.78;57.45
55994;BME280;67425;52.126;20.638;2023-09-30T06:05:33;57532.97;;;-144.78;58.53
55994;BME280;67425;52.126;20.638;2023-09-30T06:08:03;57522.56;;;-144.78;57.76
55994;BME280;67425;52.126;20.638;2023-09-30T06:10:29;57532.97;;;-144.78;58.67
55994;BME280;67425;52.126;20.638;2023-09-30T06:12:55;57549.56;;;-144.78;59.36
55994;BME280;67425;52.126;20.638;2023-09-30T06:15:22;57539.19;;;-144.78;58.62
55994;BME280;67425;52.126;20.638;2023-09-30T06:17:51;57566.19;;;-144.78;59.31
55994;BME280;67425;52.126;20.638;2023-09-30T06:20:17;57545.41;;;-144.78;59.41
55994;BME280;67425;52.126;20.638;2023-09-30T06:22:45;57547.50;;;-144.78;59.57
55994;BME280;67425;52.126;20.638;2023-09-30T06:25:12;57530.88;;;-144.78;59.25
55994;BME280;67425;52.126;20.638;2023-09-30T06:27:38;57528.81;;;-144.78;58.87
55994;BME280;67425;52.126;20.638;2023-09-30T06:30:04;57526.72;;;-144.78;59.43
55994;BME280;67425;52.126;20.638;2023-09-30T06:32:30;57510.13;;;-144.78;59.32
55994;BME280;67425;52.126;20.638;2023-09-30T06:34:56;57520.50;;;-144.78;59.74
55994;BME280;67425;52.126;20.638;2023-09-30T06:37:21;57526.72;;;-144.78;60.11
55994;BME280;67425;52.126;20.638;2023-09-30T06:39:47;57499.72;;;-144.78;60.14
55994;BME280;67425;52.126;20.638;2023-09-30T06:42:13;57535.03;;;-144.78;60.62
55994;BME280;67425;52.126;20.638;2023-09-30T06:44:38;57566.19;;;-144.78;61.40
55994;BME280;67425;52.126;20.638;2023-09-30T06:47:04;57530.88;;;-144.78;61.55
55994;BME280;67425;52.126;20.638;2023-09-30T06:49:30;57528.81;;;-144.78;61.23
55994;BME280;67425;52.126;20.638;2023-09-30T06:51:55;57505.97;;;-144.78;61.00
55994;BME280;67425;52.126;20.638;2023-09-30T06:54:21;57501.81;;;-144.78;61.96
55994;BME280;67425;52.126;20.638;2023-09-30T06:56:46;57524.66;;;-144.78;61.96
55994;BME280;67425;52.126;20.638;2023-09-30T06:59:12;57497.66;;;-144.78;62.18
55994;BME280;67425;52.126;20.638;2023-09-30T07:01:37;57514.25;;;-144.78;61.54
55994;BME280;67425;52.126;20.638;2023-09-30T07:04:02;57541.25;;;-144.78;62.97
55994;BME280;67425;52.126;20.638;2023-09-30T07:06:28;57512.19;;;-144.78;63.36
55994;BME280;67425;52.126;20.638;2023-09-30T07:08:53;57522.56;;;-144.78;62.31
55994;BME280;67425;52.126;20.638;2023-09-30T07:11:29;57541.25;;;-144.78;62.99
55994;BME280;67425;52.126;20.638;2023-09-30T07:13:57;57501.81;;;-144.78;62.65
55994;BME280;67425;52.126;20.638;2023-09-30T07:16:23;57514.25;;;-144.78;62.68
55994;BME280;67425;52.126;20.638;2023-09-30T07:18:48;57501.81;;;-144.78;62.03
55994;BME280;67425;52.126;20.638;2023-09-30T07:21:13;57493.50;;;-144.78;62.51
55994;BME280;67425;52.126;20.638;2023-09-30T07:23:39;57514.25;;;-144.78;62.86
55994;BME280;67425;52.126;20.638;2023-09-30T07:26:04;57510.13;;;-144.78;62.90
55994;BME280;67425;52.126;20.638;2023-09-30T07:28:29;57495.56;;;-144.78;62.73
55994;BME280;67425;52.126;20.638;2023-09-30T07:30:55;57539.19;;;-144.78;63.45
55994;BME280;67425;52.126;20.638;2023-09-30T07:33:20;57489.34;;;-144.78;63.66
55994;BME280;67425;52.126;20.638;2023-09-30T07:35:46;57518.41;;;-144.78;63.56
55994;BME280;67425;52.126;20.638;2023-09-30T07:38:11;57518.41;;;-144.78;63.45
55994;BME280;67425;52.126;20.638;2023-09-30T07:40:37;57532.97;;;-144.78;63.08
55994;BME280;67425;52.126;20.638;2023-09-30T07:43:02;57505.97;;;-144.78;63.72
55994;BME280;67425;52.126;20.638;2023-09-30T07:45:27;57510.13;;;-144.78;63.45
55994;BME280;67425;52.126;20.638;2023-09-30T07:47:53;57543.34;;;-144.78;62.67
55994;BME280;67425;52.126;20.638;2023-09-30T07:50:18;57541.25;;;-144.78;63.51
55994;BME280;67425;52.126;20.638;2023-09-30T07:52:44;57508.03;;;-144.78;62.86
55994;BME280;67425;52.126;20.638;2023-09-30T07:55:11;57520.50;;;-144.78;62.99
55994;BME280;67425;52.126;20.638;2023-09-30T07:57:38;57526.72;;;-144.78;63.11
55994;BME280;67425;52.126;20.638;2023-09-30T08:00:04;57516.34;;;-144.78;63.28
55994;BME280;67425;52.126;20.638;2023-09-30T08:02:34;57535.03;;;-144.78;62.94
55994;BME280;67425;52.126;20.638;2023-09-30T08:04:59;57518.41;;;-144.78;62.88
55994;BME280;67425;52.126;20.638;2023-09-30T08:07:26;57505.97;;;-144.78;63.16
55994;BME280;67425;52.126;20.638;2023-09-30T08:09:51;57545.41;;;-144.78;64.36
55994;BME280;67425;52.126;20.638;2023-09-30T08:12:16;57543.34;;;-144.78;63.93
55994;BME280;67425;52.126;20.638;2023-09-30T08:14:42;57551.66;;;-144.78;63.76
55994;BME280;67425;52.126;20.638;2023-09-30T08:17:09;57528.81;;;-144.78;64.41
55994;BME280;67425;52.126;20.638;2023-09-30T08:19:35;57501.81;;;-144.78;65.18
55994;BME280;67425;52.126;20.638;2023-09-30T08:22:01;57530.88;;;-144.78;65.23
55994;BME280;67425;52.126;20.638;2023-09-30T08:24:31;57518.41;;;-144.78;65.09
55994;BME280;67425;52.126;20.638;2023-09-30T08:26:56;57493.50;;;-144.78;65.58
55994;BME280;67425;52.126;20.638;2023-09-30T08:29:22;57530.88;;;-144.78;65.23
55994;BME280;67425;52.126;20.638;2023-09-30T08:31:47;57503.88;;;-144.78;65.23
55994;BME280;67425;52.126;20.638;2023-09-30T08:34:14;57518.41;;;-144.78;64.59
55994;BME280;67425;52.126;20.638;2023-09-30T08:36:43;57532.97;;;-144.78;65.15
55994;BME280;67425;52.126;20.638;2023-09-30T08:39:08;57528.81;;;-144.78;64.82
55994;BME280;67425;52.126;20.638;2023-09-30T08:41:35;57524.66;;;-144.78;64.71
55994;BME280;67425;52.126;20.638;2023-09-30T08:44:02;57505.97;;;-144.78;64.87
55994;BME280;67425;52.126;20.638;2023-09-30T08:46:31;57530.88;;;-144.78;65.83
55994;BME280;67425;52.126;20.638;2023-09-30T08:48:58;57543.34;;;-144.78;65.06
55994;BME280;67425;52.126;20.638;2023-09-30T08:51:24;57518.41;;;-144.78;65.50
55994;BME280;67425;52.126;20.638;2023-09-30T08:53:52;57503.88;;;-144.78;66.47
55994;BME280;67425;52.126;20.638;2023-09-30T08:56:20;57522.56;;;-144.78;66.41
55994;BME280;67425;52.126;20.638;2023-09-30T08:58:48;57510.13;;;-144.78;65.97
55994;BME280;67425;52.126;20.638;2023-09-30T09:01:14;57543.34;;;-144.78;65.99
55994;BME280;67425;52.126;20.638;2023-09-30T09:03:40;57522.56;;;-144.78;66.44
55994;BME280;67425;52.126;20.638;2023-09-30T09:06:05;57528.81;;;-144.78;66.73
55994;BME280;67425;52.126;20.638;2023-09-30T09:08:31;57537.09;;;-144.78;65.20
55994;BME280;67425;52.126;20.638;2023-09-30T09:10:59;57526.72;;;-144.78;65.34
55994;BME280;67425;52.126;20.638;2023-09-30T09:13:26;57535.03;;;-144.78;65.58
55994;BME280;67425;52.126;20.638;2023-09-30T09:16:10;57545.41;;;-144.78;65.97
55994;BME280;67425;52.126;20.638;2023-09-30T09:18:36;57524.66;;;-144.78;65.38
55994;BME280;67425;52.126;20.638;2023-09-30T09:21:12;57522.56;;;-144.78;65.78
55994;BME280;67425;52.126;20.638;2023-09-30T09:23:42;57539.19;;;-144.78;66.33
55994;BME280;67425;52.126;20.638;2023-09-30T09:26:12;57530.88;;;-144.78;67.15
55994;BME280;67425;52.126;20.638;2023-09-30T09:28:39;57541.25;;;-144.78;66.24
55994;BME280;67425;52.126;20.638;2023-09-30T09:31:29;57539.19;;;-144.78;68.20
55994;BME280;67425;52.126;20.638;2023-09-30T09:33:55;57514.25;;;-144.78;66.98
55994;BME280;67425;52.126;20.638;2023-09-30T09:36:21;57522.56;;;-144.78;67.15
55994;BME280;67425;52.126;20.638;2023-09-30T09:38:48;57539.19;;;-144.78;68.64
55994;BME280;67425;52.126;20.638;2023-09-30T09:41:15;57522.56;;;-144.78;67.23
55994;BME280;67425;52.126;20.638;2023-09-30T09:43:41;57545.41;;;-144.78;70.09
55994;BME280;67425;52.126;20.638;2023-09-30T09:46:10;57537.09;;;-144.78;69.66
55994;BME280;67425;52.126;20.638;2023-09-30T09:48:36;57545.41;;;-144.78;69.75
55994;BME280;67425;52.126;20.638;2023-09-30T09:51:04;57543.34;;;-144.78;70.10
55994;BME280;67425;52.126;20.638;2023-09-30T09:53:34;57541.25;;;-144.78;69.99
55994;BME280;67425;52.126;20.638;2023-09-30T09:56:02;57568.25;;;-144.78;69.01
55994;BME280;67425;52.126;20.638;2023-09-30T09:58:32;57528.81;;;-144.78;70.48
55994;BME280;67425;52.126;20.638;2023-09-30T10:01:00;57530.88;;;-144.78;68.48
55994;BME280;67425;52.126;20.638;2023-09-30T10:03:26;57520.50;;;-144.78;67.75
55994;BME280;67425;52.126;20.638;2023-09-30T10:05:52;57524.66;;;-144.78;66.96
55994;BME280;67425;52.126;20.638;2023-09-30T10:08:21;57526.72;;;-144.78;66.13
55994;BME280;67425;52.126;20.638;2023-09-30T10:10:53;57557.88;;;-144.78;65.40
55994;BME280;67425;52.126;20.638;2023-09-30T10:13:51;57522.56;;;-144.78;66.49
55994;BME280;67425;52.126;20.638;2023-09-30T10:16:46;57555.81;;;-144.78;65.09
55994;BME280;67425;52.126;20.638;2023-09-30T10:19:16;57528.81;;;-144.78;63.76
55994;BME280;67425;52.126;20.638;2023-09-30T10:24:50;57547.50;;;-144.78;65.68
55994;BME280;67425;52.126;20.638;2023-09-30T10:30:08;57580.72;;;-144.78;65.71
55994;BME280;67425;52.126;20.638;2023-09-30T10:37:42;57562.03;;;-144.78;66.23
55994;BME280;67425;52.126;20.638;2023-09-30T10:40:08;57559.97;;;-144.78;65.52
55994;BME280;67425;52.126;20.638;2023-09-30T10:42:49;57549.56;;;-144.78;66.27
55994;BME280;67425;52.126;20.638;2023-09-30T10:51:15;57545.41;;;-144.78;64.10
55994;BME280;67425;52.126;20.638;2023-09-30T10:53:45;57564.09;;;-144.78;65.05
55994;BME280;67425;52.126;20.638;2023-09-30T10:56:11;57526.72;;;-144.78;66.40
55994;BME280;67425;52.126;20.638;2023-09-30T10:58:58;57572.41;;;-144.78;66.48
55994;BME280;67425;52.126;20.638;2023-09-30T11:01:24;57570.34;;;-144.78;66.45
55994;BME280;67425;52.126;20.638;2023-09-30T11:03:53;57562.03;;;-144.78;66.76
55994;BME280;67425;52.126;20.638;2023-09-30T11:06:23;57572.41;;;-144.78;64.02
55994;BME280;67425;52.126;20.638;2023-09-30T11:08:53;57526.72;;;-144.78;64.21
55994;BME280;67425;52.126;20.638;2023-09-30T11:11:19;57572.41;;;-144.78;65.32
55994;BME280;67425;52.126;20.638;2023-09-30T11:13:44;57537.09;;;-144.78;64.75
55994;BME280;67425;52.126;20.638;2023-09-30T11:16:10;57535.03;;;-144.78;65.97
55994;BME280;67425;52.126;20.638;2023-09-30T11:18:35;57570.34;;;-144.78;67.34
55994;BME280;67425;52.126;20.638;2023-09-30T11:23:30;57532.97;;;-144.78;65.63
55994;BME280;67425;52.126;20.638;2023-09-30T11:25:55;57535.03;;;-144.78;64.87
55994;BME280;67425;52.126;20.638;2023-09-30T11:28:21;57555.81;;;-144.78;64.05
55994;BME280;67425;52.126;20.638;2023-09-30T11:31:00;57551.66;;;-144.78;64.40
55994;BME280;67425;52.126;20.638;2023-09-30T11:33:28;57547.50;;;-144.78;64.88
55994;BME280;67425;52.126;20.638;2023-09-30T11:36:05;57553.72;;;-144.78;64.58
55994;BME280;67425;52.126;20.638;2023-09-30T11:38:32;57545.41;;;-144.78;63.34
55994;BME280;67425;52.126;20.638;2023-09-30T11:41:04;57547.50;;;-144.78;62.96
55994;BME280;67425;52.126;20.638;2023-09-30T11:43:32;57586.94;;;-144.78;65.22
55994;BME280;67425;52.126;20.638;2023-09-30T11:46:08;57505.97;;;-144.78;62.54
55994;BME280;67425;52.126;20.638;2023-09-30T11:48:37;57524.66;;;-144.78;63.28
55994;BME280;67425;52.126;20.638;2023-09-30T11:51:03;57508.03;;;-144.78;62.21
55994;BME280;67425;52.126;20.638;2023-09-30T11:53:30;57524.66;;;-144.78;61.51
55994;BME280;67425;52.126;20.638;2023-09-30T11:55:59;57566.19;;;-144.78;60.78
55994;BME280;67425;52.126;20.638;2023-09-30T11:58:30;57518.41;;;-144.78;59.06
55994;BME280;67425;52.126;20.638;2023-09-30T12:00:58;57512.19;;;-144.78;59.75
55994;BME280;67425;52.126;20.638;2023-09-30T12:03:25;57526.72;;;-144.78;60.41
55994;BME280;67425;52.126;20.638;2023-09-30T12:05:53;57512.19;;;-144.78;57.97
55994;BME280;67425;52.126;20.638;2023-09-30T12:08:21;57501.81;;;-144.78;56.32
55994;BME280;67425;52.126;20.638;2023-09-30T12:10:47;57524.66;;;-144.78;54.42
55994;BME280;67425;52.126;20.638;2023-09-30T12:13:13;57476.88;;;-144.78;54.16
55994;BME280;67425;52.126;20.638;2023-09-30T12:15:40;57520.50;;;-144.78;52.68
55994;BME280;67425;52.126;20.638;2023-09-30T12:18:06;57487.28;;;-144.78;52.47
55994;BME280;67425;52.126;20.638;2023-09-30T12:20:31;57516.34;;;-144.78;54.10
55994;BME280;67425;52.126;20.638;2023-09-30T12:22:56;57530.88;;;-144.78;52.72
55994;BME280;67425;52.126;20.638;2023-09-30T12:25:22;57516.34;;;-144.78;51.24
55994;BME280;67425;52.126;20.638;2023-09-30T12:27:48;57470.66;;;-144.78;50.45
55994;BME280;67425;52.126;20.638;2023-09-30T12:30:14;57516.34;;;-144.78;49.86
55994;BME280;67425;52.126;20.638;2023-09-30T12:32:40;57508.03;;;-144.78;49.05
55994;BME280;67425;52.126;20.638;2023-09-30T12:35:06;57487.28;;;-144.78;48.61
55994;BME280;67425;52.126;20.638;2023-09-30T12:37:31;57481.03;;;-144.78;47.98
55994;BME280;67425;52.126;20.638;2023-09-30T12:39:57;57489.34;;;-144.78;46.63
55994;BME280;67425;52.126;20.638;2023-09-30T12:42:23;57458.19;;;-144.78;44.91
55994;BME280;67425;52.126;20.638;2023-09-30T12:44:48;57468.56;;;-144.78;44.23
55994;BME280;67425;52.126;20.638;2023-09-30T12:47:13;57481.03;;;-144.78;42.61
55994;BME280;67425;52.126;20.638;2023-09-30T12:49:39;57483.13;;;-144.78;42.11
55994;BME280;67425;52.126;20.638;2023-09-30T12:52:04;57476.88;;;-144.78;41.67